createdAt,value
2022-12-11T00:00:30.572Z,69.82
2022-12-11T00:01:09.615Z,77.35
2022-12-11T00:01:41.049Z,70.82
2022-12-11T00:02:12.540Z,74.60
2022-12-11T00:02:44.320Z,75.03
2022-12-11T00:03:19.256Z,75.47
2022-12-11T00:03:50.983Z,74.47
2022-12-11T00:04:23.199Z,76.38
2022-12-11T00:04:54.797Z,81.23
2022-12-11T00:05:26.162Z,75.57
2022-12-11T00:05:57.544Z,76.68
2022-12-11T00:06:28.911Z,74.00
2022-12-11T00:07:00.348Z,78.95
2022-12-11T00:07:31.759Z,73.68
2022-12-11T00:08:03.504Z,84.75
2022-12-11T00:08:35.150Z,74.10
2022-12-11T00:09:06.535Z,84.82
2022-12-11T00:09:38.113Z,71.85
2022-12-11T00:10:09.696Z,73.83
2022-12-11T00:10:48.906Z,75.53
2022-12-11T00:11:21.378Z,77.00
2022-12-11T00:11:53.033Z,72.15
2022-12-11T00:12:24.612Z,81.75
2022-12-11T00:12:56.001Z,74.15
2022-12-11T00:13:27.480Z,79.03
2022-12-11T00:13:59.230Z,76.55
2022-12-11T00:14:31.837Z,76.32
2022-12-11T00:15:03.458Z,79.32
2022-12-11T00:15:34.799Z,71.37
2022-12-11T00:16:06.838Z,79.35
2022-12-11T00:16:38.333Z,82.13
2022-12-11T00:17:10.158Z,75.30
2022-12-11T00:17:41.694Z,78.53
2022-12-11T00:18:14.232Z,77.45
2022-12-11T00:18:45.677Z,76.30
2022-12-11T00:19:17.178Z,72.32
2022-12-11T00:19:48.678Z,77.15
2022-12-11T00:20:20.065Z,81.10
2022-12-11T00:20:51.459Z,79.67
2022-12-11T00:21:22.814Z,77.35
2022-12-11T00:21:54.274Z,70.82
2022-12-11T00:22:25.678Z,73.32
2022-12-11T00:22:57.121Z,73.43
2022-12-11T00:23:29.077Z,73.80
2022-12-11T00:24:00.460Z,74.13
2022-12-11T00:24:32.000Z,79.03
2022-12-11T00:25:04.285Z,73.82
2022-12-11T00:25:35.658Z,73.18
2022-12-11T00:26:09.571Z,74.10
2022-12-11T00:26:41.265Z,81.57
2022-12-11T00:27:12.745Z,71.07
2022-12-11T00:27:46.771Z,68.75
2022-12-11T00:28:21.239Z,80.15
2022-12-11T00:28:55.587Z,80.00
2022-12-11T00:29:27.104Z,73.95
2022-12-11T00:29:58.535Z,71.13
2022-12-11T00:30:29.994Z,77.70
2022-12-11T00:31:09.957Z,70.60
2022-12-11T00:31:42.398Z,68.43
2022-12-11T00:32:13.819Z,68.07
2022-12-11T00:32:45.243Z,75.20
2022-12-11T00:33:17.182Z,69.43
2022-12-11T00:33:49.157Z,64.90
2022-12-11T00:34:20.646Z,69.70
2022-12-11T00:34:52.014Z,72.72
2022-12-11T00:35:23.397Z,70.47
2022-12-11T00:35:54.804Z,74.38
2022-12-11T00:36:27.423Z,73.05
2022-12-11T00:36:59.129Z,73.47
2022-12-11T00:37:30.698Z,83.85
2022-12-11T00:38:02.064Z,78.15
2022-12-11T00:38:33.564Z,80.25
2022-12-11T00:39:05.995Z,79.65
2022-12-11T00:39:39.882Z,76.85
2022-12-11T00:40:11.562Z,71.55
2022-12-11T00:40:44.067Z,70.10
2022-12-11T00:41:16.703Z,72.28
2022-12-11T00:41:48.124Z,70.68
2022-12-11T00:42:19.502Z,68.33
2022-12-11T00:42:50.912Z,78.00
2022-12-11T00:43:22.359Z,78.63
2022-12-11T00:43:53.797Z,75.35
2022-12-11T00:44:25.407Z,76.65
2022-12-11T00:44:56.832Z,71.53
2022-12-11T00:45:28.305Z,69.55
2022-12-11T00:45:59.886Z,73.95
2022-12-11T00:46:31.796Z,70.22
2022-12-11T00:47:03.982Z,73.55
2022-12-11T00:47:35.404Z,76.93
2022-12-11T00:48:07.211Z,77.40
2022-12-11T00:48:38.776Z,72.22
2022-12-11T00:49:10.223Z,70.68
2022-12-11T00:49:45.178Z,72.65
2022-12-11T00:50:20.951Z,78.00
2022-12-11T00:50:52.407Z,73.10
2022-12-11T00:51:23.860Z,74.13
2022-12-11T00:51:55.436Z,80.88
2022-12-11T00:52:26.800Z,71.05
2022-12-11T00:52:58.198Z,75.23
2022-12-11T00:53:29.627Z,73.00
2022-12-11T00:54:01.043Z,71.35
2022-12-11T00:54:34.318Z,71.35
2022-12-11T00:55:06.063Z,74.57
2022-12-11T00:55:41.689Z,74.28
2022-12-11T00:56:21.953Z,78.20
2022-12-11T00:56:55.784Z,76.18
2022-12-11T00:57:27.192Z,77.68
2022-12-11T00:57:58.756Z,78.05
2022-12-11T00:58:30.113Z,73.07
2022-12-11T00:59:01.556Z,70.47
2022-12-11T00:59:32.957Z,77.40
2022-12-11T01:00:08.797Z,73.22
2022-12-11T01:00:40.939Z,72.43
2022-12-11T01:01:15.940Z,76.80
2022-12-11T01:01:47.432Z,71.18
2022-12-11T01:02:18.930Z,80.30
2022-12-11T01:02:50.691Z,73.15
2022-12-11T01:03:22.217Z,70.93
2022-12-11T01:03:53.885Z,74.77
2022-12-11T01:04:25.303Z,73.15
2022-12-11T01:04:56.773Z,80.45
2022-12-11T01:05:28.184Z,80.65
2022-12-11T01:05:59.590Z,77.43
2022-12-11T01:06:31.060Z,71.47
2022-12-11T01:07:02.522Z,78.40
2022-12-11T01:07:34.088Z,73.20
2022-12-11T01:08:05.759Z,68.68
2022-12-11T01:08:38.863Z,76.25
2022-12-11T01:09:28.807Z,71.97
2022-12-11T01:10:18.953Z,65.40
2022-12-11T01:10:50.386Z,73.75
2022-12-11T01:11:21.840Z,72.78
2022-12-11T01:11:53.737Z,73.90
2022-12-11T01:12:26.824Z,74.40
2022-12-11T01:13:04.222Z,72.55
2022-12-11T01:13:35.991Z,72.55
2022-12-11T01:14:08.123Z,81.38
2022-12-11T01:14:39.547Z,70.38
2022-12-11T01:15:12.181Z,77.23
2022-12-11T01:15:45.548Z,72.63
2022-12-11T01:16:17.008Z,72.85
2022-12-11T01:16:48.454Z,78.38
2022-12-11T01:17:19.975Z,75.45
2022-12-11T01:17:52.068Z,80.40
2022-12-11T01:18:25.507Z,85.05
2022-12-11T01:18:57.657Z,74.18
2022-12-11T01:19:29.088Z,83.82
2022-12-11T01:20:00.478Z,74.45
2022-12-11T01:20:32.334Z,77.53
2022-12-11T01:21:11.966Z,71.13
2022-12-11T01:21:43.435Z,74.60
2022-12-11T01:22:15.300Z,77.72
2022-12-11T01:22:46.903Z,79.45
2022-12-11T01:23:18.305Z,79.10
2022-12-11T01:23:51.068Z,73.75
2022-12-11T01:24:22.585Z,81.43
2022-12-11T01:24:54.128Z,80.38
2022-12-11T01:25:27.083Z,81.32
2022-12-11T01:26:04.852Z,80.97
2022-12-11T01:26:36.307Z,79.55
2022-12-11T01:27:08.575Z,82.28
2022-12-11T01:27:40.131Z,78.72
2022-12-11T01:28:11.718Z,82.10
2022-12-11T01:28:44.032Z,85.13
2022-12-11T01:29:15.469Z,83.97
2022-12-11T01:29:47.049Z,79.13
2022-12-11T01:30:19.835Z,70.78
2022-12-11T01:30:51.339Z,76.03
2022-12-11T01:31:22.787Z,81.37
2022-12-11T01:31:54.161Z,83.65
2022-12-11T01:32:25.606Z,87.60
2022-12-11T01:32:57.022Z,83.30
2022-12-11T01:33:28.715Z,85.30
2022-12-11T01:34:00.294Z,85.65
2022-12-11T01:35:22.178Z,81.53
2022-12-11T01:35:54.078Z,82.97
2022-12-11T01:36:25.486Z,86.75
2022-12-11T01:36:57.064Z,86.23
2022-12-11T01:37:28.618Z,81.95
2022-12-11T01:38:00.317Z,87.43
2022-12-11T01:38:31.896Z,85.03
2022-12-11T01:39:03.694Z,91.80
2022-12-11T01:39:36.263Z,80.78
2022-12-11T01:40:09.212Z,77.05
2022-12-11T01:40:49.660Z,87.50
2022-12-11T01:41:21.849Z,75.13
2022-12-11T01:42:01.476Z,81.03
2022-12-11T01:42:33.651Z,76.70
2022-12-11T01:43:05.139Z,87.00
2022-12-11T01:44:00.159Z,86.85
2022-12-11T01:44:31.461Z,79.38
2022-12-11T01:45:21.581Z,92.43
2022-12-11T01:45:53.003Z,81.10
2022-12-11T01:46:25.192Z,83.78
2022-12-11T01:46:56.635Z,89.30
2022-12-11T01:47:28.096Z,78.50
2022-12-11T01:48:05.476Z,85.22
2022-12-11T01:48:42.064Z,87.47
2022-12-11T01:49:17.155Z,81.05
2022-12-11T01:49:48.608Z,73.90
2022-12-11T01:50:20.369Z,82.10
2022-12-11T01:51:04.793Z,83.10
2022-12-11T01:51:41.739Z,84.82
2022-12-11T01:52:21.272Z,75.60
2022-12-11T01:52:53.309Z,85.00
2022-12-11T01:53:32.076Z,78.55
2022-12-11T01:54:09.051Z,93.20
2022-12-11T01:54:42.010Z,86.97
2022-12-11T01:55:14.483Z,82.82
2022-12-11T01:55:47.748Z,91.10
2022-12-11T01:56:19.660Z,89.07
2022-12-11T01:56:55.087Z,85.90
2022-12-11T01:57:26.557Z,82.25
2022-12-11T01:57:58.288Z,84.43
2022-12-11T01:58:34.448Z,79.82
2022-12-11T01:59:08.071Z,76.75
2022-12-11T01:59:43.330Z,79.63
2022-12-11T02:00:15.359Z,79.13
2022-12-11T02:00:46.969Z,86.93
2022-12-11T02:01:29.349Z,87.20
2022-12-11T02:02:08.495Z,78.00
2022-12-11T02:02:40.165Z,77.68
2022-12-11T02:03:11.672Z,79.57
2022-12-11T02:03:43.026Z,77.57
2022-12-11T02:04:15.830Z,81.95
2022-12-11T02:04:48.400Z,90.50
2022-12-11T02:05:19.919Z,80.00
2022-12-11T02:05:51.340Z,87.03
2022-12-11T02:06:40.542Z,87.00
2022-12-11T02:07:12.080Z,74.43
2022-12-11T02:07:50.549Z,76.80
2022-12-11T02:08:22.064Z,75.78
2022-12-11T02:08:53.527Z,76.85
2022-12-11T02:09:33.378Z,80.55
2022-12-11T02:10:05.562Z,83.40
2022-12-11T02:10:48.549Z,81.10
2022-12-11T02:11:25.787Z,85.07
2022-12-11T02:12:29.002Z,76.83
2022-12-11T02:13:17.610Z,73.50
2022-12-11T02:14:04.150Z,75.18
2022-12-11T02:14:44.167Z,72.43
2022-12-11T02:15:25.691Z,72.10
2022-12-11T02:16:10.153Z,69.85
2022-12-11T02:16:53.471Z,73.53
2022-12-11T02:17:40.780Z,72.63
2022-12-11T02:18:29.352Z,77.15
2022-12-11T02:19:08.083Z,69.28
2022-12-11T02:19:45.568Z,71.90
2022-12-11T02:20:43.772Z,74.50
2022-12-11T02:21:23.323Z,71.07
2022-12-11T02:21:57.196Z,73.20
2022-12-11T02:22:53.891Z,69.22
2022-12-11T02:23:38.876Z,69.32
2022-12-11T02:24:48.994Z,67.78
2022-12-11T02:25:35.440Z,67.60
2022-12-11T02:26:34.095Z,69.28
2022-12-11T02:27:20.647Z,68.88
2022-12-11T02:27:58.841Z,66.23
2022-12-11T02:28:33.010Z,67.65
2022-12-11T02:29:12.116Z,68.50
2022-12-11T02:29:53.919Z,75.70
2022-12-11T02:30:25.473Z,67.78
2022-12-11T02:31:05.684Z,72.82
2022-12-11T02:31:43.534Z,68.18
2022-12-11T02:32:21.702Z,75.70
2022-12-11T02:32:56.925Z,73.55
2022-12-11T02:33:43.838Z,70.47
2022-12-11T02:34:23.125Z,77.90
2022-12-11T02:35:09.606Z,77.35
2022-12-11T02:35:44.076Z,66.63
2022-12-11T02:36:18.106Z,71.00
2022-12-11T02:36:54.286Z,73.88
2022-12-11T02:37:29.381Z,78.85
2022-12-11T02:38:08.150Z,75.47
2022-12-11T02:38:43.404Z,70.95
2022-12-11T02:39:16.729Z,74.18
2022-12-11T02:39:50.677Z,70.30
2022-12-11T02:40:26.405Z,68.70
2022-12-11T02:41:00.580Z,76.57
2022-12-11T02:41:33.704Z,73.55
2022-12-11T02:42:08.004Z,82.40
2022-12-11T02:42:42.461Z,74.88
2022-12-11T02:43:16.313Z,76.40
2022-12-11T02:43:50.633Z,74.78
2022-12-11T02:44:29.488Z,76.90
2022-12-11T02:45:03.291Z,79.30
2022-12-11T02:45:36.160Z,71.35
2022-12-11T02:46:08.135Z,71.67
2022-12-11T02:46:41.088Z,71.22
2022-12-11T02:47:15.181Z,75.53
2022-12-11T02:47:47.839Z,76.93
2022-12-11T02:48:21.121Z,68.78
2022-12-11T02:48:54.242Z,71.13
2022-12-11T02:49:27.746Z,73.05
2022-12-11T02:50:02.685Z,79.80
2022-12-11T02:50:38.429Z,72.45
2022-12-11T02:51:12.464Z,74.40
2022-12-11T02:51:44.325Z,77.93
2022-12-11T02:52:21.111Z,73.72
2022-12-11T02:52:55.946Z,73.85
2022-12-11T02:53:31.090Z,72.57
2022-12-11T02:54:04.738Z,71.82
2022-12-11T02:54:39.630Z,73.07
2022-12-11T02:55:14.109Z,73.85
2022-12-11T02:55:45.797Z,66.57
2022-12-11T02:56:24.637Z,71.97
2022-12-11T02:57:08.529Z,76.40
2022-12-11T02:57:45.524Z,67.40
2022-12-11T02:58:24.257Z,71.80
2022-12-11T02:59:00.354Z,64.68
2022-12-11T02:59:39.303Z,71.03
2022-12-11T03:00:11.755Z,67.63
2022-12-11T03:00:45.091Z,75.25
2022-12-11T03:01:16.894Z,68.03
2022-12-11T03:01:48.458Z,69.55
2022-12-11T03:02:20.285Z,70.25
2022-12-11T03:02:51.820Z,72.38
2022-12-11T03:03:23.607Z,73.73
2022-12-11T03:03:56.224Z,67.82
2022-12-11T03:04:29.395Z,69.20
2022-12-11T03:05:00.787Z,74.72
2022-12-11T03:05:32.727Z,67.07
2022-12-11T03:06:04.313Z,69.30
2022-12-11T03:06:41.623Z,73.20
2022-12-11T03:07:23.298Z,67.53
2022-12-11T03:07:54.931Z,66.57
2022-12-11T03:08:26.476Z,68.15
2022-12-11T03:08:57.903Z,73.40
2022-12-11T03:09:29.425Z,76.15
2022-12-11T03:10:01.100Z,62.17
2022-12-11T03:10:33.037Z,70.45
2022-12-11T03:11:04.754Z,71.43
2022-12-11T03:11:36.188Z,68.68
2022-12-11T03:12:15.161Z,69.82
2022-12-11T03:12:53.675Z,65.05
2022-12-11T03:13:25.583Z,70.18
2022-12-11T03:13:57.400Z,63.50
2022-12-11T03:14:28.867Z,76.63
2022-12-11T03:15:03.272Z,70.85
2022-12-11T03:15:57.529Z,71.70
2022-12-11T03:16:35.672Z,63.92
2022-12-11T03:17:07.025Z,68.03
2022-12-11T03:18:01.226Z,62.08
2022-12-11T03:18:52.415Z,64.40
2022-12-11T03:19:52.223Z,63.60
2022-12-11T03:20:37.496Z,61.65
2022-12-11T03:21:28.187Z,58.75
2022-12-11T03:22:12.700Z,61.57
2022-12-11T03:22:50.060Z,63.72
2022-12-11T03:23:46.065Z,63.55
2022-12-11T03:24:26.316Z,63.97
2022-12-11T03:25:04.860Z,58.80
2022-12-11T03:25:44.472Z,62.17
2022-12-11T03:26:19.464Z,63.38
2022-12-11T03:27:00.172Z,60.95
2022-12-11T03:27:42.343Z,61.65
2022-12-11T03:28:19.375Z,59.35
2022-12-11T03:29:09.357Z,67.73
2022-12-11T03:29:51.370Z,61.15
2022-12-11T03:30:25.039Z,62.00
2022-12-11T03:30:57.940Z,58.45
2022-12-11T03:31:40.862Z,64.45
2022-12-11T03:32:19.751Z,57.30
2022-12-11T03:33:00.498Z,55.20
2022-12-11T03:33:37.385Z,61.45
2022-12-11T03:34:16.924Z,56.15
2022-12-11T03:34:58.412Z,54.97
2022-12-11T03:35:35.377Z,56.03
2022-12-11T03:36:11.583Z,59.92
2022-12-11T03:36:44.380Z,60.95
2022-12-11T03:37:16.636Z,56.90
2022-12-11T03:37:49.695Z,63.65
2022-12-11T03:38:27.978Z,62.65
2022-12-11T03:39:09.187Z,55.22
2022-12-11T03:39:47.181Z,57.80
2022-12-11T03:40:22.864Z,63.83
2022-12-11T03:40:59.205Z,57.97
2022-12-11T03:41:34.205Z,63.87
2022-12-11T03:42:08.429Z,64.97
2022-12-11T03:42:42.665Z,63.75
2022-12-11T03:43:16.151Z,60.35
2022-12-11T03:43:51.897Z,64.72
2022-12-11T03:44:24.851Z,60.05
2022-12-11T03:44:58.916Z,59.53
2022-12-11T03:45:30.530Z,56.08
2022-12-11T03:46:02.697Z,59.30
2022-12-11T03:46:40.035Z,65.80
2022-12-11T03:47:14.703Z,57.03
2022-12-11T03:47:47.571Z,61.22
2022-12-11T03:48:20.867Z,55.67
2022-12-11T03:48:55.584Z,58.75
2022-12-11T03:49:31.923Z,61.55
2022-12-11T03:50:07.399Z,58.08
2022-12-11T03:50:41.638Z,61.53
2022-12-11T03:51:14.830Z,61.53
2022-12-11T03:51:48.619Z,62.13
2022-12-11T03:52:20.934Z,63.88
2022-12-11T03:52:53.766Z,55.97
2022-12-11T03:53:26.542Z,53.25
2022-12-11T03:53:59.761Z,54.78
2022-12-11T03:54:31.664Z,57.13
2022-12-11T03:55:05.038Z,57.70
2022-12-11T03:55:38.202Z,58.72
2022-12-11T03:56:11.922Z,54.03
2022-12-11T03:56:45.988Z,61.10
2022-12-11T03:57:22.566Z,56.22
2022-12-11T03:57:54.090Z,57.92
2022-12-11T03:58:25.642Z,56.53
2022-12-11T03:58:57.355Z,59.78
2022-12-11T03:59:28.809Z,52.15
2022-12-11T04:00:00.583Z,60.28
2022-12-11T04:00:32.380Z,59.53
2022-12-11T04:01:04.145Z,54.97
2022-12-11T04:01:35.784Z,58.15
2022-12-11T04:02:11.100Z,57.83
2022-12-11T04:02:43.502Z,55.95
2022-12-11T04:03:15.829Z,56.33
2022-12-11T04:03:47.288Z,55.13
2022-12-11T04:04:19.067Z,53.30
2022-12-11T04:04:51.400Z,60.17
2022-12-11T04:05:22.756Z,56.63
2022-12-11T04:05:55.747Z,52.47
2022-12-11T04:06:27.120Z,53.60
2022-12-11T04:06:58.760Z,54.75
2022-12-11T04:07:31.203Z,50.42
2022-12-11T04:08:02.885Z,52.58
2022-12-11T04:08:34.362Z,59.50
2022-12-11T04:09:05.753Z,51.13
2022-12-11T04:09:37.270Z,50.28
2022-12-11T04:10:08.762Z,48.60
2022-12-11T04:10:41.250Z,52.25
2022-12-11T04:11:31.195Z,53.00
2022-12-11T04:12:02.760Z,48.33
2022-12-11T04:12:34.120Z,44.78
2022-12-11T04:13:05.714Z,48.45
2022-12-11T04:13:38.032Z,50.78
2022-12-11T04:14:31.887Z,48.38
2022-12-11T04:15:03.449Z,48.43
2022-12-11T04:15:34.992Z,46.75
2022-12-11T04:16:07.083Z,48.92
2022-12-11T04:16:38.614Z,49.90
2022-12-11T04:17:10.164Z,50.60
2022-12-11T04:18:00.175Z,49.50
2022-12-11T04:18:50.094Z,50.15
2022-12-11T04:19:42.392Z,50.42
2022-12-11T04:20:32.707Z,46.65
2022-12-11T04:21:22.595Z,46.28
2022-12-11T04:22:12.859Z,42.33
2022-12-11T04:23:02.914Z,45.92
2022-12-11T04:23:53.220Z,43.25
2022-12-11T04:24:24.783Z,45.65
2022-12-11T04:24:56.200Z,48.38
2022-12-11T04:25:27.632Z,42.38
2022-12-11T04:26:16.457Z,48.45
2022-12-11T04:26:47.852Z,44.97
2022-12-11T04:27:39.559Z,45.95
2022-12-11T04:28:11.037Z,47.47
2022-12-11T04:28:43.595Z,49.07
2022-12-11T04:29:15.197Z,48.22
2022-12-11T04:29:46.678Z,46.72
2022-12-11T04:30:21.200Z,45.83
2022-12-11T04:30:52.749Z,47.42
2022-12-11T04:31:24.274Z,45.88
2022-12-11T04:31:55.730Z,50.72
2022-12-11T04:32:27.127Z,46.35
2022-12-11T04:32:58.524Z,47.83
2022-12-11T04:33:30.044Z,48.03
2022-12-11T04:34:01.532Z,46.20
2022-12-11T04:34:32.875Z,47.70
2022-12-11T04:35:06.548Z,46.15
2022-12-11T04:35:38.094Z,42.38
2022-12-11T04:36:11.484Z,52.13
2022-12-11T04:36:43.551Z,46.40
2022-12-11T04:37:15.145Z,46.45
2022-12-11T04:37:46.654Z,45.83
2022-12-11T04:38:18.048Z,46.42
2022-12-11T04:38:49.471Z,47.78
2022-12-11T04:39:20.867Z,43.83
2022-12-11T04:39:52.256Z,45.03
2022-12-11T04:40:23.712Z,43.60
2022-12-11T04:41:04.356Z,44.15
2022-12-11T04:41:37.151Z,43.80
2022-12-11T04:42:08.601Z,41.20
2022-12-11T04:42:40.085Z,42.55
2022-12-11T04:43:11.492Z,44.72
2022-12-11T04:43:45.227Z,42.33
2022-12-11T04:44:16.866Z,45.03
2022-12-11T04:44:48.467Z,41.87
2022-12-11T04:45:19.892Z,39.10
2022-12-11T04:45:51.334Z,43.13
2022-12-11T04:46:24.510Z,48.45
2022-12-11T04:46:55.958Z,47.45
2022-12-11T04:47:27.584Z,44.42
2022-12-11T04:47:59.541Z,42.83
2022-12-11T04:48:31.028Z,45.03
2022-12-11T04:49:02.651Z,46.40
2022-12-11T04:49:33.993Z,42.92
2022-12-11T04:50:08.016Z,42.87
2022-12-11T04:50:39.347Z,43.85
2022-12-11T04:51:11.522Z,45.03
2022-12-11T04:51:43.682Z,43.80
2022-12-11T04:52:15.122Z,42.25
2022-12-11T04:52:46.520Z,39.55
2022-12-11T04:53:17.930Z,42.53
2022-12-11T04:53:49.343Z,40.72
2022-12-11T04:54:20.683Z,41.50
2022-12-11T04:54:52.133Z,43.78
2022-12-11T04:55:23.960Z,41.27
2022-12-11T04:55:55.723Z,40.97
2022-12-11T04:56:27.376Z,40.15
2022-12-11T04:56:58.820Z,39.33
2022-12-11T04:57:30.198Z,41.70
2022-12-11T04:58:01.583Z,39.78
2022-12-11T04:58:33.192Z,42.22
2022-12-11T04:59:04.540Z,42.13
2022-12-11T04:59:37.108Z,42.47
2022-12-11T05:00:11.219Z,40.33
2022-12-11T05:00:42.780Z,39.53
2022-12-11T05:01:17.622Z,42.17
2022-12-11T05:01:49.139Z,40.90
2022-12-11T05:02:20.610Z,43.10
2022-12-11T05:02:52.103Z,39.97
2022-12-11T05:03:23.648Z,38.42
2022-12-11T05:03:55.010Z,40.40
2022-12-11T05:04:31.879Z,41.45
2022-12-11T05:05:09.901Z,37.70
2022-12-11T05:05:47.912Z,37.70
2022-12-11T05:06:19.312Z,39.37
2022-12-11T05:06:51.076Z,39.20
2022-12-11T05:07:22.503Z,40.03
2022-12-11T05:07:54.130Z,39.35
2022-12-11T05:08:25.664Z,35.85
2022-12-11T05:08:58.798Z,36.80
2022-12-11T05:09:30.423Z,34.97
2022-12-11T05:10:02.075Z,37.60
2022-12-11T05:10:33.485Z,36.85
2022-12-11T05:11:07.714Z,34.72
2022-12-11T05:11:39.575Z,37.33
2022-12-11T05:12:11.126Z,38.47
2022-12-11T05:12:42.568Z,40.35
2022-12-11T05:13:13.875Z,39.47
2022-12-11T05:13:45.848Z,38.88
2022-12-11T05:14:17.375Z,35.65
2022-12-11T05:14:53.110Z,38.08
2022-12-11T05:15:24.498Z,34.22
2022-12-11T05:15:56.475Z,38.85
2022-12-11T05:16:27.914Z,39.53
2022-12-11T05:16:59.776Z,37.30
2022-12-11T05:17:31.160Z,37.25
2022-12-11T05:18:02.586Z,34.38
2022-12-11T05:18:34.603Z,39.03
2022-12-11T05:19:06.252Z,38.72
2022-12-11T05:19:37.771Z,35.35
2022-12-11T05:20:10.510Z,35.97
2022-12-11T05:20:42.035Z,36.42
2022-12-11T05:21:15.273Z,36.10
2022-12-11T05:21:46.743Z,35.75
2022-12-11T05:22:18.943Z,35.47
2022-12-11T05:22:50.355Z,35.85
2022-12-11T05:23:21.713Z,34.13
2022-12-11T05:23:53.144Z,33.00
2022-12-11T05:24:24.525Z,33.13
2022-12-11T05:24:56.000Z,37.25
2022-12-11T05:25:27.468Z,37.83
2022-12-11T05:26:01.878Z,35.13
2022-12-11T05:26:33.303Z,34.55
2022-12-11T05:27:04.684Z,32.65
2022-12-11T05:27:36.110Z,37.40
2022-12-11T05:28:07.522Z,34.70
2022-12-11T05:28:40.041Z,37.60
2022-12-11T05:29:11.434Z,34.33
2022-12-11T05:29:43.023Z,32.67
2022-12-11T05:30:14.465Z,36.83
2022-12-11T05:30:45.813Z,34.47
2022-12-11T05:31:19.960Z,37.95
2022-12-11T05:31:51.388Z,36.15
2022-12-11T05:32:23.013Z,37.92
2022-12-11T05:32:54.358Z,34.27
2022-12-11T05:33:26.674Z,33.92
2022-12-11T05:33:58.150Z,34.75
2022-12-11T05:34:29.602Z,38.80
2022-12-11T05:35:01.150Z,35.15
2022-12-11T05:35:32.487Z,31.58
2022-12-11T05:36:04.762Z,39.95
2022-12-11T05:36:36.283Z,37.53
2022-12-11T05:37:07.988Z,34.95
2022-12-11T05:37:39.336Z,36.53
2022-12-11T05:38:10.809Z,35.57
2022-12-11T05:38:42.270Z,33.97
2022-12-11T05:39:13.698Z,33.35
2022-12-11T05:39:45.071Z,35.80
2022-12-11T05:40:16.673Z,33.85
2022-12-11T05:41:02.212Z,35.85
2022-12-11T05:41:33.883Z,35.47
2022-12-11T05:42:05.402Z,35.20
2022-12-11T05:42:36.808Z,35.00
2022-12-11T05:43:08.692Z,36.47
2022-12-11T05:43:40.219Z,39.27
2022-12-11T05:44:13.314Z,38.33
2022-12-11T05:44:44.921Z,33.17
2022-12-11T05:45:16.435Z,37.22
2022-12-11T05:45:47.781Z,35.47
2022-12-11T05:46:21.830Z,33.35
2022-12-11T05:46:53.301Z,33.50
2022-12-11T05:47:25.495Z,34.85
2022-12-11T05:47:56.966Z,38.47
2022-12-11T05:48:28.377Z,34.88
2022-12-11T05:49:01.942Z,33.33
2022-12-11T05:49:33.313Z,35.17
2022-12-11T05:50:04.954Z,38.30
2022-12-11T05:50:36.413Z,36.15
2022-12-11T05:51:09.087Z,35.70
2022-12-11T05:51:41.450Z,35.28
2022-12-11T05:52:12.898Z,32.47
2022-12-11T05:52:44.322Z,35.95
2022-12-11T05:53:15.745Z,34.97
2022-12-11T05:53:49.212Z,36.83
2022-12-11T05:54:20.815Z,30.67
2022-12-11T05:54:52.208Z,36.88
2022-12-11T05:55:23.677Z,35.17
2022-12-11T05:55:55.274Z,33.28
2022-12-11T05:56:29.811Z,36.40
2022-12-11T05:57:01.244Z,34.25
2022-12-11T05:57:32.642Z,35.88
2022-12-11T05:58:04.001Z,37.20
2022-12-11T05:58:35.953Z,34.58
2022-12-11T05:59:07.853Z,32.95
2022-12-11T05:59:39.289Z,38.27
2022-12-11T06:00:12.626Z,36.33
2022-12-11T06:00:44.315Z,33.80
2022-12-11T06:01:22.531Z,35.00
2022-12-11T06:01:54.051Z,34.20
2022-12-11T06:02:25.776Z,37.65
2022-12-11T06:02:57.302Z,33.03
2022-12-11T06:03:28.942Z,37.28
2022-12-11T06:04:01.034Z,35.90
2022-12-11T06:04:33.295Z,33.80
2022-12-11T06:05:05.029Z,33.33
2022-12-11T06:05:40.546Z,36.15
2022-12-11T06:06:12.075Z,32.67
2022-12-11T06:06:46.678Z,35.28
2022-12-11T06:07:18.245Z,33.97
2022-12-11T06:07:49.668Z,37.72
2022-12-11T06:08:21.266Z,33.17
2022-12-11T06:08:54.849Z,33.30
2022-12-11T06:09:26.240Z,37.20
2022-12-11T06:09:57.622Z,35.53
2022-12-11T06:10:29.243Z,33.83
2022-12-11T06:11:01.123Z,34.33
2022-12-11T06:11:34.089Z,35.13
2022-12-11T06:12:05.589Z,34.78
2022-12-11T06:12:37.069Z,38.90
2022-12-11T06:13:08.578Z,37.03
2022-12-11T06:13:40.033Z,36.50
2022-12-11T06:14:12.133Z,32.38
2022-12-11T06:14:43.675Z,34.65
2022-12-11T06:15:15.152Z,33.55
2022-12-11T06:15:46.613Z,36.90
2022-12-11T06:16:18.101Z,36.08
2022-12-11T06:16:50.295Z,42.50
2022-12-11T06:17:21.774Z,35.75
2022-12-11T06:17:53.303Z,33.45
2022-12-11T06:18:24.749Z,33.92
2022-12-11T06:18:58.408Z,36.70
2022-12-11T06:19:36.400Z,35.83
2022-12-11T06:20:08.658Z,35.33
2022-12-11T06:20:40.189Z,32.20
2022-12-11T06:21:24.759Z,34.73
2022-12-11T06:21:56.229Z,36.20
2022-12-11T06:22:27.707Z,35.67
2022-12-11T06:22:59.763Z,39.00
2022-12-11T06:23:31.215Z,34.38
2022-12-11T06:24:04.108Z,37.92
2022-12-11T06:24:35.571Z,35.85
2022-12-11T06:25:07.512Z,37.28
2022-12-11T06:25:39.843Z,37.72
2022-12-11T06:26:11.774Z,33.58
2022-12-11T06:26:43.208Z,36.33
2022-12-11T06:27:14.742Z,34.42
2022-12-11T06:27:46.187Z,36.50
2022-12-11T06:28:17.578Z,36.00
2022-12-11T06:28:49.710Z,35.35
2022-12-11T06:29:21.036Z,36.95
2022-12-11T06:29:52.562Z,40.33
2022-12-11T06:30:37.649Z,33.00
2022-12-11T06:31:11.980Z,39.78
2022-12-11T06:31:43.485Z,34.53
2022-12-11T06:32:15.295Z,38.97
2022-12-11T06:32:46.701Z,34.08
2022-12-11T06:33:18.234Z,34.50
2022-12-11T06:33:49.929Z,34.97
2022-12-11T06:34:21.356Z,37.10
2022-12-11T06:34:52.800Z,36.83
2022-12-11T06:35:24.259Z,34.92
2022-12-11T06:35:56.708Z,33.58
2022-12-11T06:36:28.231Z,35.45
2022-12-11T06:36:59.609Z,34.42
2022-12-11T06:37:31.052Z,39.13
2022-12-11T06:38:02.480Z,36.97
2022-12-11T06:38:34.050Z,35.22
2022-12-11T06:39:05.592Z,39.45
2022-12-11T06:39:36.981Z,36.17
2022-12-11T06:40:10.519Z,36.65
2022-12-11T06:40:41.917Z,34.78
2022-12-11T06:41:14.487Z,38.53
2022-12-11T06:41:45.992Z,38.55
2022-12-11T06:42:17.585Z,38.35
2022-12-11T06:42:49.042Z,40.00
2022-12-11T06:43:25.774Z,36.15
2022-12-11T06:43:57.395Z,36.17
2022-12-11T06:44:28.840Z,38.72
2022-12-11T06:45:00.305Z,38.42
2022-12-11T06:45:31.729Z,39.10
2022-12-11T06:46:05.223Z,37.47
2022-12-11T06:46:36.784Z,43.20
2022-12-11T06:47:08.175Z,38.38
2022-12-11T06:47:39.611Z,38.10
2022-12-11T06:48:11.046Z,38.40
2022-12-11T06:48:43.226Z,35.15
2022-12-11T06:49:14.552Z,37.47
2022-12-11T06:49:45.904Z,41.00
2022-12-11T06:50:17.359Z,37.83
2022-12-11T06:50:48.978Z,35.67
2022-12-11T06:51:22.677Z,38.42
2022-12-11T06:51:54.121Z,40.45
2022-12-11T06:52:27.458Z,36.97
2022-12-11T06:52:58.826Z,35.53
2022-12-11T06:53:30.373Z,35.93
2022-12-11T06:54:01.787Z,39.03
2022-12-11T06:54:33.341Z,35.63
2022-12-11T06:55:05.281Z,38.25
2022-12-11T06:55:37.122Z,36.85
2022-12-11T06:56:12.031Z,37.97
2022-12-11T06:56:43.486Z,37.67
2022-12-11T06:57:15.544Z,37.63
2022-12-11T06:57:47.021Z,39.47
2022-12-11T06:58:18.402Z,37.90
2022-12-11T06:58:50.081Z,36.07
2022-12-11T06:59:21.429Z,35.38
2022-12-11T06:59:52.821Z,39.25
2022-12-11T07:00:24.268Z,38.28
2022-12-11T07:00:55.780Z,40.63
2022-12-11T07:01:28.491Z,40.42
2022-12-11T07:02:00.074Z,42.78
2022-12-11T07:02:32.255Z,39.88
2022-12-11T07:03:04.171Z,41.45
2022-12-11T07:03:35.755Z,42.53
2022-12-11T07:04:07.183Z,39.40
2022-12-11T07:04:38.663Z,39.75
2022-12-11T07:05:10.270Z,42.15
2022-12-11T07:05:42.003Z,43.15
2022-12-11T07:06:13.865Z,42.92
2022-12-11T07:06:47.184Z,42.30
2022-12-11T07:07:19.797Z,42.05
2022-12-11T07:07:53.967Z,40.28
2022-12-11T07:08:27.280Z,42.45
2022-12-11T07:08:58.667Z,40.33
2022-12-11T07:09:30.067Z,41.13
2022-12-11T07:10:07.625Z,41.38
2022-12-11T07:10:40.363Z,41.75
2022-12-11T07:11:15.344Z,43.63
2022-12-11T07:11:49.803Z,44.35
2022-12-11T07:12:21.251Z,46.72
2022-12-11T07:12:53.963Z,45.72
2022-12-11T07:13:25.596Z,43.90
2022-12-11T07:14:02.585Z,43.28
2022-12-11T07:14:34.126Z,44.28
2022-12-11T07:15:06.023Z,42.77
2022-12-11T07:15:40.516Z,44.97
2022-12-11T07:16:14.928Z,46.03
2022-12-11T07:16:46.443Z,44.45
2022-12-11T07:17:17.918Z,46.90
2022-12-11T07:17:49.383Z,42.45